Current Conditions
Light Rain
Showers



Pressure
1014.92 (hPa) - 29.97 (inHG)
Visibility

10.0 (km) - 6.2 (miles)
   Temperature
7  °C
45°F
6  °C
Dewpoint
93  %
 Humidity
   Wind Speed
4.0  m/s
9  mph
14  km/h
8  kts
   Wind Direction
 60°
East North
East
   Airport Data
URKA
Location Anapa 118 km (73.34 mi)
Metar :URKA 081530Z 06004MPS 9999 -SHRA BKN031CB 07/06 Q1015 R04/290155 TEMPO 1000 -SHRA BR SCT010 BKN020CB RMK QFE757/1010
Sun 8th December 18:30 pm
   Raw Metar Info
Raw METAR is the most common format in the world for the transmission of observational weather data. It is highly standardized through the International Civil Aviation Organization (ICAO), which allows it to be understood throughout most of the world.
   API Info
Data Provided by
https://www.checkwx.com/weather/URKA
   © Info
CSS/SVG/PHP scripts were developed by weather34.com for use in the weather34 template © 2015-2019

Guide Info provided by Metar-Wikipedia